createdAt,value
2019-04-22T00:00:10.681Z,63.57
2019-04-22T00:01:14.947Z,63.39
2019-04-22T00:02:11.803Z,63.67
2019-04-22T00:03:12.972Z,63.57
2019-04-22T00:04:15.566Z,63.51
2019-04-22T00:05:21.519Z,63.80
2019-04-22T00:06:30.824Z,63.51
2019-04-22T00:07:25.580Z,63.89
2019-04-22T00:08:36.216Z,64.75
2019-04-22T00:09:30.703Z,65.10
2019-04-22T00:12:34.609Z,65.48
2019-04-22T00:13:40.910Z,65.67
2019-04-22T00:14:29.554Z,65.30
2019-04-22T00:15:30.959Z,66.44
2019-04-22T00:16:38.857Z,65.80
2019-04-22T00:17:38.736Z,66.15
2019-04-22T00:18:48.014Z,66.35
2019-04-22T00:19:36.084Z,66.72
2019-04-22T00:20:36.520Z,66.82
2019-04-22T00:21:33.284Z,66.72
2019-04-22T00:22:32.055Z,66.63
2019-04-22T00:23:36.536Z,66.76
2019-04-22T00:24:32.089Z,66.92
2019-04-22T00:25:42.064Z,67.33
2019-04-22T00:26:39.314Z,67.30
2019-04-22T00:27:33.910Z,67.81
2019-04-22T00:28:39.351Z,67.43
2019-04-22T00:30:29.870Z,67.62
2019-04-22T00:31:26.839Z,67.71
2019-04-22T00:32:30.554Z,68.10
2019-04-22T00:33:32.383Z,68.57
2019-04-22T00:34:30.213Z,68.86
2019-04-22T00:35:29.268Z,68.57
2019-04-22T00:36:27.562Z,68.29
2019-04-22T00:37:28.588Z,68.67
2019-04-22T00:38:31.434Z,68.54
2019-04-22T00:39:37.303Z,68.76
2019-04-22T00:40:34.110Z,68.86
2019-04-22T00:41:29.783Z,69.43
2019-04-22T00:42:37.493Z,69.21
2019-04-22T00:43:37.510Z,68.86
2019-04-22T00:44:31.796Z,69.49
2019-04-22T00:45:35.871Z,69.49
2019-04-22T00:46:36.168Z,69.68
2019-04-22T00:47:32.422Z,69.82
2019-04-22T00:49:05.847Z,69.62
2019-04-22T00:50:07.902Z,69.59
2019-04-22T00:50:33.098Z,69.49
2019-04-22T00:51:33.729Z,69.40
2019-04-22T00:52:31.232Z,69.31
2019-04-22T00:53:30.135Z,70.20
2019-04-22T00:54:31.151Z,70.20
2019-04-22T00:55:34.270Z,70.58
2019-04-22T00:56:27.792Z,70.64
2019-04-22T00:57:28.201Z,70.45
2019-04-22T00:58:32.432Z,70.36
2019-04-22T00:59:35.106Z,70.73
2019-04-22T01:00:33.830Z,70.64
2019-04-22T01:01:26.704Z,70.54
2019-04-22T01:02:49.560Z,70.26
2019-04-22T01:03:34.165Z,70.73
2019-04-22T01:04:34.561Z,70.16
2019-04-22T01:05:27.821Z,70.26
2019-04-22T01:06:27.286Z,70.54
2019-04-22T01:07:23.872Z,70.26
2019-04-22T01:08:30.714Z,70.54
2019-04-22T01:09:32.601Z,70.83
2019-04-22T01:11:29.525Z,70.83
2019-04-22T01:12:28.517Z,71.21
2019-04-22T01:13:24.847Z,71.50
2019-04-22T01:14:29.673Z,71.59
2019-04-22T01:15:31.878Z,71.02
2019-04-22T01:16:28.124Z,70.58
2019-04-22T01:17:29.335Z,70.67
2019-04-22T01:18:22.696Z,70.73
2019-04-22T01:19:29.687Z,70.92
2019-04-22T01:20:55.896Z,70.96
2019-04-22T01:21:29.872Z,71.25
2019-04-22T01:22:21.822Z,70.92
2019-04-22T01:23:23.892Z,71.15
2019-04-22T01:24:22.230Z,71.02
2019-04-22T01:25:20.505Z,71.41
2019-04-22T01:26:21.294Z,71.31
2019-04-22T01:27:16.197Z,71.41
2019-04-22T01:28:14.252Z,71.41
2019-04-22T01:29:11.022Z,71.59
2019-04-22T01:30:16.495Z,71.78
2019-04-22T01:31:07.838Z,71.88
2019-04-22T01:32:01.902Z,71.88
2019-04-22T01:33:09.442Z,71.78
2019-04-22T01:34:11.409Z,71.78
2019-04-22T01:35:13.111Z,72.26
2019-04-22T01:36:21.425Z,72.55
2019-04-22T01:37:20.510Z,72.55
2019-04-22T01:38:18.988Z,72.55
2019-04-22T01:39:23.317Z,72.64
2019-04-22T01:40:28.898Z,72.36
2019-04-22T01:41:35.324Z,72.55
2019-04-22T01:42:30.875Z,72.07
2019-04-22T01:43:24.875Z,72.26
2019-04-22T01:44:29.793Z,72.74
2019-04-22T01:45:29.500Z,72.36
2019-04-22T01:46:25.847Z,73.03
2019-04-22T01:47:30.244Z,73.32
2019-04-22T01:48:26.879Z,73.22
2019-04-22T01:49:30.035Z,72.93
2019-04-22T01:50:25.815Z,73.22
2019-04-22T01:51:28.258Z,73.60
2019-04-22T01:52:20.406Z,73.12
2019-04-22T01:53:31.380Z,73.03
2019-04-22T01:54:34.078Z,72.93
2019-04-22T01:55:38.619Z,73.22
2019-04-22T01:56:28.180Z,73.88
2019-04-22T01:57:22.667Z,73.41
2019-04-22T01:58:17.100Z,73.32
2019-04-22T01:59:15.806Z,73.50
2019-04-22T02:00:18.981Z,73.88
2019-04-22T02:01:14.660Z,73.32
2019-04-22T02:02:25.494Z,73.79
2019-04-22T02:03:26.442Z,73.69
2019-04-22T02:04:25.629Z,73.98
2019-04-22T02:05:24.539Z,73.41
2019-04-22T02:06:22.116Z,73.56
2019-04-22T02:07:23.442Z,73.66
2019-04-22T02:08:32.654Z,73.69
2019-04-22T02:10:30.694Z,74.90
2019-04-22T02:11:26.435Z,74.52
2019-04-22T02:13:23.828Z,74.42
2019-04-22T02:14:27.624Z,74.52
2019-04-22T02:15:23.325Z,74.42
2019-04-22T02:16:20.099Z,74.61
2019-04-22T02:17:28.652Z,75.18
2019-04-22T02:18:22.986Z,74.61
2019-04-22T02:19:37.291Z,75.28
2019-04-22T02:20:25.349Z,74.71
2019-04-22T02:21:21.580Z,74.90
2019-04-22T02:22:39.391Z,75.57
2019-04-22T02:24:26.375Z,74.71
2019-04-22T02:25:30.095Z,74.80
2019-04-22T02:26:25.557Z,75.47
2019-04-22T02:27:27.018Z,74.80
2019-04-22T02:28:34.255Z,74.99
2019-04-22T02:29:27.285Z,75.57
2019-04-22T02:30:30.410Z,75.76
2019-04-22T02:31:36.065Z,75.85
2019-04-22T02:32:49.480Z,75.57
2019-04-22T02:34:32.496Z,75.57
2019-04-22T02:35:38.353Z,75.66
2019-04-22T02:36:30.432Z,75.95
2019-04-22T02:37:23.408Z,75.66
2019-04-22T02:38:47.126Z,75.57
2019-04-22T02:40:38.076Z,76.90
2019-04-22T02:42:16.699Z,75.95
2019-04-22T02:43:34.235Z,76.81
2019-04-22T02:44:35.831Z,76.71
2019-04-22T02:45:26.038Z,76.62
2019-04-22T02:47:20.560Z,77.09
2019-04-22T02:49:25.170Z,77.00
2019-04-22T02:50:16.165Z,76.62
2019-04-22T02:52:25.536Z,76.62
2019-04-22T02:53:59.300Z,76.33
2019-04-22T02:55:30.303Z,76.62
2019-04-22T02:57:29.782Z,76.52
2019-04-22T02:58:45.019Z,76.90
2019-04-22T02:59:25.947Z,77.09
2019-04-22T03:00:37.840Z,76.81
2019-04-22T03:02:37.162Z,77.09
2019-04-22T03:03:31.119Z,77.38
2019-04-22T03:05:27.756Z,77.00
2019-04-22T03:07:14.700Z,77.47
2019-04-22T03:08:25.343Z,77.38
2019-04-22T03:09:25.732Z,77.38
2019-04-22T03:10:29.445Z,77.47
2019-04-22T03:13:29.205Z,77.09
2019-04-22T03:14:38.129Z,77.95
2019-04-22T03:15:13.573Z,77.67
2019-04-22T03:17:22.142Z,77.95
2019-04-22T03:18:35.845Z,77.38
2019-04-22T03:20:17.841Z,77.95
2019-04-22T03:21:17.503Z,77.86
2019-04-22T03:25:51.749Z,77.67
2019-04-22T03:27:19.659Z,77.47
2019-04-22T03:28:30.875Z,77.57
2019-04-22T03:29:17.968Z,78.05
2019-04-22T03:30:48.332Z,77.72
2019-04-22T03:31:40.349Z,78.39
2019-04-22T03:33:36.239Z,77.95
2019-04-22T03:35:15.923Z,77.86
2019-04-22T03:37:02.457Z,78.14
2019-04-22T03:37:48.101Z,78.14
2019-04-22T03:38:18.144Z,78.10
2019-04-22T03:39:45.671Z,78.14
2019-04-22T03:40:30.353Z,78.20
2019-04-22T03:41:31.265Z,78.23
2019-04-22T03:42:13.490Z,78.14
2019-04-22T03:43:46.510Z,77.57
2019-04-22T03:44:33.891Z,77.95
2019-04-22T03:46:21.177Z,78.39
2019-04-22T03:48:41.062Z,78.58
2019-04-22T03:51:27.643Z,78.67
2019-04-22T03:53:38.325Z,78.58
2019-04-22T03:54:29.059Z,78.49
2019-04-22T03:55:15.540Z,78.14
2019-04-22T03:56:37.262Z,78.52
2019-04-22T03:58:01.155Z,78.52
2019-04-22T03:59:28.431Z,78.58
2019-04-22T04:01:34.132Z,78.30
2019-04-22T04:02:35.820Z,78.33
2019-04-22T04:03:12.079Z,77.82
2019-04-22T04:04:35.439Z,78.49
2019-04-22T04:06:20.704Z,78.43
2019-04-22T04:08:31.834Z,78.33
2019-04-22T04:09:32.872Z,78.33
2019-04-22T04:11:24.696Z,78.05
2019-04-22T04:12:23.707Z,77.76
2019-04-22T04:13:21.087Z,78.05
2019-04-22T04:14:33.406Z,78.23
2019-04-22T04:16:19.562Z,78.14
2019-04-22T04:17:26.602Z,78.05
2019-04-22T04:18:12.344Z,77.76
2019-04-22T04:19:23.310Z,78.05
2019-04-22T04:20:24.320Z,78.05
2019-04-22T04:21:27.062Z,77.57
2019-04-22T04:22:30.499Z,77.95
2019-04-22T04:23:38.362Z,77.47
2019-04-22T04:24:32.327Z,77.28
2019-04-22T04:25:29.698Z,77.95
2019-04-22T04:26:31.124Z,77.86
2019-04-22T04:28:33.558Z,78.30
2019-04-22T04:29:41.740Z,78.10
2019-04-22T04:31:25.145Z,78.23
2019-04-22T04:33:18.471Z,77.57
2019-04-22T04:37:28.182Z,78.23
2019-04-22T04:38:19.075Z,78.43
2019-04-22T04:39:21.295Z,78.30
2019-04-22T04:40:20.710Z,78.30
2019-04-22T04:41:30.790Z,78.43
2019-04-22T04:42:25.938Z,78.96
2019-04-22T04:46:27.119Z,78.72
2019-04-22T04:47:25.878Z,78.72
2019-04-22T04:48:14.470Z,78.23
2019-04-22T04:49:18.191Z,78.14
2019-04-22T04:50:25.220Z,78.33
2019-04-22T04:52:39.276Z,78.05
2019-04-22T04:54:28.827Z,77.38
2019-04-22T04:55:22.138Z,77.28
2019-04-22T04:57:19.278Z,77.28
2019-04-22T04:58:27.844Z,77.76
2019-04-22T05:00:10.634Z,77.19
2019-04-22T05:05:20.334Z,75.51
2019-04-22T05:06:15.800Z,75.64
2019-04-22T05:07:19.808Z,74.74
2019-04-22T05:08:12.463Z,75.26
2019-04-22T05:11:16.737Z,73.73
2019-04-22T05:14:14.433Z,73.92
2019-04-22T05:15:21.136Z,73.92
2019-04-22T05:17:16.408Z,74.40
2019-04-22T05:19:15.709Z,73.83
2019-04-22T05:20:13.056Z,74.69
2019-04-22T05:22:07.840Z,73.86
2019-04-22T05:23:11.970Z,73.77
2019-04-22T05:24:09.574Z,74.15
2019-04-22T05:26:07.474Z,73.29
2019-04-22T05:27:13.476Z,73.19
2019-04-22T05:28:08.756Z,73.19
2019-04-22T05:29:08.558Z,73.67
2019-04-22T05:31:08.319Z,73.92
2019-04-22T05:32:01.387Z,74.34
2019-04-22T05:33:01.571Z,73.92
2019-04-22T05:34:04.508Z,74.05
2019-04-22T05:35:06.518Z,73.63
2019-04-22T05:36:02.684Z,74.30
2019-04-22T05:37:25.691Z,74.05
2019-04-22T05:39:09.793Z,73.92
2019-04-22T05:40:14.015Z,73.54
2019-04-22T05:41:02.356Z,74.05
2019-04-22T05:42:03.399Z,73.96
2019-04-22T05:43:01.966Z,73.96
2019-04-22T05:44:03.193Z,73.67
2019-04-22T05:45:04.617Z,73.77
2019-04-22T05:46:05.805Z,73.39
2019-04-22T05:47:01.189Z,73.48
2019-04-22T05:48:00.958Z,72.91
2019-04-22T05:49:05.993Z,72.43
2019-04-22T05:50:02.538Z,72.62
2019-04-22T05:51:03.727Z,72.47
2019-04-22T05:52:03.146Z,71.61
2019-04-22T05:53:01.833Z,71.57
2019-04-22T05:54:05.459Z,71.80
2019-04-22T05:55:05.348Z,71.89
2019-04-22T05:56:06.590Z,71.70
2019-04-22T05:57:04.017Z,71.51
2019-04-22T05:58:07.183Z,71.51
2019-04-22T05:59:05.246Z,70.84
2019-04-22T05:59:58.908Z,70.46
2019-04-22T06:01:21.387Z,70.84
2019-04-22T06:05:07.017Z,70.75
2019-04-22T06:06:06.290Z,71.22
2019-04-22T06:07:00.103Z,70.56
2019-04-22T06:08:02.448Z,70.94
2019-04-22T06:09:05.172Z,71.32
2019-04-22T06:10:04.318Z,70.27
2019-04-22T06:10:59.977Z,70.65
2019-04-22T06:11:55.066Z,71.32
2019-04-22T06:12:59.649Z,70.27
2019-04-22T06:13:55.987Z,70.07
2019-04-22T06:15:01.417Z,70.40
2019-04-22T06:15:57.142Z,70.59
2019-04-22T06:16:58.708Z,70.40
2019-04-22T06:18:07.658Z,69.73
2019-04-22T06:19:03.120Z,70.30
2019-04-22T06:20:00.312Z,69.82
2019-04-22T06:20:59.486Z,69.82
2019-04-22T06:21:55.705Z,69.73
2019-04-22T06:24:06.348Z,69.48
2019-04-22T06:25:01.273Z,69.09
2019-04-22T06:26:14.809Z,68.90
2019-04-22T06:28:05.361Z,69.06
2019-04-22T06:29:04.155Z,69.06
2019-04-22T06:30:01.864Z,68.87
2019-04-22T06:31:02.568Z,69.09
2019-04-22T06:32:17.836Z,69.48
2019-04-22T06:33:02.483Z,68.90
2019-04-22T06:34:05.689Z,68.33
2019-04-22T06:35:02.955Z,68.33
2019-04-22T06:37:05.652Z,67.79
2019-04-22T06:38:20.894Z,67.21
2019-04-22T06:38:55.943Z,67.47
2019-04-22T06:39:59.380Z,67.50
2019-04-22T06:41:07.369Z,67.31
2019-04-22T06:42:01.060Z,66.64
2019-04-22T06:42:57.913Z,66.93
2019-04-22T06:43:58.176Z,67.44
2019-04-22T06:44:58.764Z,66.48
2019-04-22T06:45:51.716Z,66.58
2019-04-22T06:47:00.628Z,66.38
2019-04-22T06:48:55.111Z,66.45
2019-04-22T06:49:55.534Z,66.09
2019-04-22T06:50:58.396Z,67.15
2019-04-22T06:52:01.909Z,66.29
2019-04-22T06:52:57.178Z,66.96
2019-04-22T06:53:54.074Z,65.91
2019-04-22T06:54:54.802Z,66.58
2019-04-22T06:55:51.383Z,66.77
2019-04-22T06:56:57.221Z,66.19
2019-04-22T06:57:58.211Z,65.81
2019-04-22T06:58:55.253Z,66.03
2019-04-22T06:59:59.002Z,65.42
2019-04-22T07:00:52.751Z,66.13
2019-04-22T07:01:55.807Z,65.42
2019-04-22T07:03:27.148Z,65.81
2019-04-22T07:03:53.585Z,65.14
2019-04-22T07:04:56.306Z,65.91
2019-04-22T07:05:52.270Z,66.03
2019-04-22T07:06:55.587Z,66.16
2019-04-22T07:07:55.175Z,65.59
2019-04-22T07:09:18.559Z,64.95
2019-04-22T07:09:54.367Z,63.92
2019-04-22T07:10:50.449Z,65.11
2019-04-22T07:11:51.515Z,63.99
2019-04-22T07:12:58.417Z,63.42
2019-04-22T07:14:00.211Z,62.65
2019-04-22T07:14:57.943Z,62.84
2019-04-22T07:16:00.406Z,62.93
2019-04-22T07:17:08.631Z,63.19
2019-04-22T07:17:55.028Z,63.09
2019-04-22T07:19:09.221Z,63.38
2019-04-22T07:19:47.548Z,63.76
2019-04-22T07:20:56.647Z,63.96
2019-04-22T07:21:52.420Z,63.38
2019-04-22T07:22:54.952Z,63.51
2019-04-22T07:24:03.012Z,63.29
2019-04-22T07:24:55.281Z,62.62
2019-04-22T07:25:52.089Z,63.38
2019-04-22T07:26:50.782Z,63.29
2019-04-22T07:27:53.828Z,63.86
2019-04-22T07:28:49.196Z,63.19
2019-04-22T07:29:55.394Z,62.65
2019-04-22T07:30:54.621Z,62.74
2019-04-22T07:31:56.312Z,62.10
2019-04-22T07:33:12.605Z,62.01
2019-04-22T07:33:56.845Z,61.91
2019-04-22T07:34:52.850Z,62.77
2019-04-22T07:36:18.154Z,61.52
2019-04-22T07:37:54.094Z,62.16
2019-04-22T07:38:43.957Z,58.99
2019-04-22T07:40:02.401Z,58.80
2019-04-22T07:40:51.847Z,58.58
2019-04-22T07:41:51.699Z,59.34
2019-04-22T07:42:52.056Z,59.16
2019-04-22T07:44:10.370Z,61.01
2019-04-22T07:44:51.114Z,59.86
2019-04-22T07:45:51.923Z,59.25
2019-04-22T07:46:56.510Z,59.64
2019-04-22T07:47:52.172Z,58.70
2019-04-22T07:48:53.176Z,58.39
2019-04-22T07:49:52.939Z,58.74
2019-04-22T07:50:55.802Z,59.51
2019-04-22T07:51:51.377Z,59.51
2019-04-22T07:52:46.994Z,60.18
2019-04-22T07:53:53.413Z,59.96
2019-04-22T07:54:52.405Z,59.99
2019-04-22T07:56:54.509Z,60.50
2019-04-22T07:58:05.159Z,59.06
2019-04-22T07:58:48.878Z,58.84
2019-04-22T07:59:50.950Z,59.54
2019-04-22T08:00:52.748Z,58.58
2019-04-22T08:01:50.937Z,58.70
2019-04-22T08:02:54.313Z,57.81
2019-04-22T08:03:58.761Z,57.78
2019-04-22T08:04:57.940Z,58.48
2019-04-22T08:06:02.527Z,58.96
2019-04-22T08:06:52.785Z,59.16
2019-04-22T08:07:52.079Z,58.55
2019-04-22T08:08:55.200Z,58.84
2019-04-22T08:10:49.983Z,58.17
2019-04-22T08:11:52.256Z,59.22
2019-04-22T08:13:49.812Z,58.48
2019-04-22T08:14:45.948Z,57.33
2019-04-22T08:16:51.817Z,57.52
2019-04-22T08:17:57.909Z,56.30
2019-04-22T08:18:45.391Z,56.08
2019-04-22T08:19:53.935Z,55.69
2019-04-22T08:20:48.686Z,56.24
2019-04-22T08:21:52.139Z,56.76
2019-04-22T08:22:51.010Z,56.63
2019-04-22T08:23:50.848Z,57.21
2019-04-22T08:24:47.309Z,56.92
2019-04-22T08:25:47.443Z,56.44
2019-04-22T08:26:46.484Z,56.37
2019-04-22T08:27:50.480Z,55.32
2019-04-22T08:29:52.392Z,54.00
2019-04-22T08:30:49.987Z,54.00
2019-04-22T08:31:48.811Z,53.68
2019-04-22T08:32:48.946Z,53.87
2019-04-22T08:33:47.812Z,52.43
2019-04-22T08:34:42.148Z,52.62
2019-04-22T08:36:00.286Z,52.17
2019-04-22T08:38:00.505Z,53.97
2019-04-22T08:39:04.165Z,53.39
2019-04-22T08:39:49.458Z,52.34
2019-04-22T08:40:50.149Z,52.24
2019-04-22T08:41:39.868Z,52.36
2019-04-22T08:42:58.376Z,52.46
2019-04-22T08:43:56.486Z,52.75
2019-04-22T08:45:54.610Z,54.09
2019-04-22T08:47:42.348Z,52.65
2019-04-22T08:48:47.766Z,52.26
2019-04-22T08:49:50.681Z,51.88
2019-04-22T08:50:44.674Z,51.88
2019-04-22T08:51:42.560Z,52.08
2019-04-22T08:52:54.407Z,52.58
2019-04-22T08:53:53.750Z,52.75
2019-04-22T08:54:45.012Z,52.94
2019-04-22T08:55:52.184Z,53.35
2019-04-22T08:58:07.201Z,52.99
2019-04-22T08:58:50.219Z,52.03
2019-04-22T08:59:43.607Z,51.55
2019-04-22T09:00:49.884Z,51.26
2019-04-22T09:01:38.008Z,50.42
2019-04-22T09:02:48.200Z,49.53
2019-04-22T09:03:47.078Z,50.30
2019-04-22T09:04:42.078Z,50.37
2019-04-22T09:07:46.984Z,52.06
2019-04-22T09:08:49.420Z,50.51
2019-04-22T09:09:45.916Z,51.31
2019-04-22T09:10:44.705Z,49.55
2019-04-22T09:11:46.961Z,50.01
2019-04-22T09:12:57.793Z,50.61
2019-04-22T09:13:45.316Z,50.23
2019-04-22T09:14:44.595Z,50.95
2019-04-22T09:15:42.497Z,49.02
2019-04-22T09:16:42.647Z,48.93
2019-04-22T09:17:47.843Z,47.87
2019-04-22T09:18:40.966Z,48.64
2019-04-22T09:19:43.656Z,46.81
2019-04-22T09:20:49.654Z,46.23
2019-04-22T09:21:48.943Z,46.59
2019-04-22T09:22:42.311Z,46.11
2019-04-22T09:23:50.227Z,45.80
2019-04-22T09:24:42.596Z,45.61
2019-04-22T09:25:39.224Z,47.92
2019-04-22T09:26:42.062Z,47.85
2019-04-22T09:27:44.526Z,48.40
2019-04-22T09:28:44.044Z,49.77
2019-04-22T09:30:48.199Z,47.89
2019-04-22T09:31:51.614Z,46.66
2019-04-22T09:32:45.473Z,47.63
2019-04-22T09:33:38.354Z,47.24
2019-04-22T09:34:39.798Z,46.83
2019-04-22T09:35:48.253Z,45.87
2019-04-22T09:36:40.733Z,45.94
2019-04-22T09:39:41.542Z,45.90
2019-04-22T09:40:39.043Z,46.74
2019-04-22T09:41:42.873Z,47.15
2019-04-22T09:42:43.756Z,47.34
2019-04-22T09:43:50.196Z,47.75
2019-04-22T09:44:40.373Z,47.19
2019-04-22T09:45:46.339Z,47.00
2019-04-22T09:46:40.989Z,47.27
2019-04-22T09:48:43.872Z,48.06
2019-04-22T09:50:42.097Z,46.95
2019-04-22T09:51:38.181Z,47.82
2019-04-22T09:52:43.457Z,45.92
2019-04-22T09:53:51.543Z,44.76
2019-04-22T09:54:51.035Z,44.59
2019-04-22T09:55:37.520Z,44.29
2019-04-22T09:57:37.850Z,42.85
2019-04-22T09:58:39.532Z,43.62
2019-04-22T09:59:48.456Z,43.64
2019-04-22T10:00:49.453Z,42.70
2019-04-22T10:02:10.925Z,43.59
2019-04-22T10:02:41.291Z,42.48
2019-04-22T10:03:36.824Z,43.04
2019-04-22T10:04:43.221Z,42.52
2019-04-22T10:05:41.187Z,40.45
2019-04-22T10:06:47.136Z,41.61
2019-04-22T10:07:39.173Z,40.55
2019-04-22T10:08:49.498Z,39.18
2019-04-22T10:09:53.161Z,40.72
2019-04-22T10:10:44.435Z,42.55
2019-04-22T10:11:40.727Z,42.07
2019-04-22T10:12:42.619Z,42.49
2019-04-22T10:13:45.529Z,41.92
2019-04-22T10:14:39.972Z,41.63
2019-04-22T10:15:39.677Z,41.27
2019-04-22T10:17:36.741Z,40.57
2019-04-22T10:18:38.694Z,40.88
2019-04-22T10:19:37.222Z,39.89
2019-04-22T10:20:38.144Z,38.16
2019-04-22T10:21:46.307Z,38.08
2019-04-22T10:22:41.090Z,37.98
2019-04-22T10:23:37.622Z,37.87
2019-04-22T10:24:31.929Z,39.68
2019-04-22T10:25:37.559Z,40.26
2019-04-22T10:26:39.652Z,39.47
2019-04-22T10:27:32.791Z,38.81
2019-04-22T10:28:38.493Z,36.89
2019-04-22T10:29:43.442Z,38.37
2019-04-22T10:30:43.994Z,38.06
2019-04-22T10:31:40.630Z,39.41
2019-04-22T10:32:37.952Z,40.45
2019-04-22T10:33:33.867Z,40.76
2019-04-22T10:34:22.994Z,39.91
2019-04-22T10:35:15.522Z,40.39
2019-04-22T10:36:10.609Z,40.88
2019-04-22T10:37:14.197Z,39.04
2019-04-22T10:38:10.476Z,39.54
2019-04-22T10:39:10.773Z,39.04
2019-04-22T10:40:11.448Z,38.54
2019-04-22T10:41:10.474Z,37.21
2019-04-22T10:42:11.234Z,37.02
2019-04-22T10:43:11.369Z,35.48
2019-04-22T10:44:10.923Z,35.58
2019-04-22T10:45:10.128Z,36.93
2019-04-22T10:46:10.566Z,36.43
2019-04-22T10:47:09.840Z,36.93
2019-04-22T10:48:10.427Z,37.52
2019-04-22T10:49:10.506Z,36.75
2019-04-22T10:50:10.280Z,36.00
2019-04-22T10:51:10.554Z,36.48
2019-04-22T10:52:09.253Z,36.07
2019-04-22T10:53:09.187Z,37.13
2019-04-22T10:54:09.593Z,37.43
2019-04-22T10:55:09.782Z,37.21
2019-04-22T10:56:09.301Z,39.06
2019-04-22T10:57:10.851Z,38.70
2019-04-22T10:58:10.598Z,40.03
2019-04-22T10:59:08.846Z,39.54
2019-04-22T11:00:09.335Z,38.78
2019-04-22T11:01:09.596Z,37.81
2019-04-22T11:02:09.613Z,37.71
2019-04-22T11:03:08.464Z,37.81
2019-04-22T11:04:09.091Z,38.49
2019-04-22T11:05:08.219Z,39.16
2019-04-22T11:06:09.474Z,39.51
2019-04-22T11:07:10.948Z,40.59
2019-04-22T11:08:09.760Z,40.69
2019-04-22T11:09:08.679Z,40.99
2019-04-22T11:10:20.397Z,40.51
2019-04-22T11:11:21.541Z,41.88
2019-04-22T11:12:13.638Z,39.86
2019-04-22T11:13:07.497Z,39.18
2019-04-22T11:14:08.723Z,37.83
2019-04-22T11:15:07.735Z,37.02
2019-04-22T11:16:07.633Z,36.23
2019-04-22T11:17:08.858Z,37.31
2019-04-22T11:18:07.452Z,37.87
2019-04-22T11:19:07.723Z,37.87
2019-04-22T11:20:07.930Z,37.77
2019-04-22T11:21:07.504Z,38.28
2019-04-22T11:22:14.990Z,37.02
2019-04-22T11:23:06.937Z,37.89
2019-04-22T11:24:06.556Z,36.71
2019-04-22T11:25:07.568Z,36.06
2019-04-22T11:26:06.382Z,36.25
2019-04-22T11:27:07.042Z,36.27
2019-04-22T11:28:07.522Z,36.75
2019-04-22T11:29:07.610Z,37.21
2019-04-22T11:30:06.055Z,37.79
2019-04-22T11:31:06.248Z,36.52
2019-04-22T11:32:06.328Z,36.13
2019-04-22T11:33:06.818Z,37.29
2019-04-22T11:34:06.240Z,37.76
2019-04-22T11:35:05.907Z,37.85
2019-04-22T11:36:06.157Z,39.61
2019-04-22T11:37:05.455Z,39.95
2019-04-22T11:38:06.639Z,40.26
2019-04-22T11:39:08.887Z,40.36
2019-04-22T11:40:15.837Z,40.07
2019-04-22T11:41:05.473Z,39.79
2019-04-22T11:42:05.038Z,38.26
2019-04-22T11:43:06.120Z,38.08
2019-04-22T11:44:05.422Z,37.50
2019-04-22T11:45:05.588Z,38.39
2019-04-22T11:46:05.184Z,36.44
2019-04-22T11:47:05.339Z,35.00
2019-04-22T11:48:05.560Z,35.02
2019-04-22T11:49:05.714Z,35.48
2019-04-22T11:50:05.643Z,36.54
2019-04-22T11:51:04.463Z,36.25
2019-04-22T11:52:06.826Z,37.12
2019-04-22T11:53:04.800Z,37.10
2019-04-22T11:54:05.185Z,37.89
2019-04-22T11:55:04.459Z,38.01
2019-04-22T11:56:04.806Z,37.04
2019-04-22T11:57:05.330Z,36.61
2019-04-22T11:58:03.691Z,36.52
2019-04-22T11:59:04.821Z,36.63
2019-04-22T12:00:04.901Z,36.07
2019-04-22T12:01:03.418Z,35.69
2019-04-22T12:02:04.628Z,34.44
2019-04-22T12:03:03.320Z,33.07
2019-04-22T12:04:04.072Z,34.22
2019-04-22T12:05:03.790Z,35.61
2019-04-22T12:06:03.927Z,35.71
2019-04-22T12:07:04.238Z,33.76
2019-04-22T12:08:03.043Z,34.53
2019-04-22T12:09:03.878Z,33.97
2019-04-22T12:10:15.157Z,34.55
2019-04-22T12:11:05.780Z,34.26
2019-04-22T12:12:03.498Z,34.56
2019-04-22T12:13:03.657Z,35.05
2019-04-22T12:14:02.343Z,34.20
2019-04-22T12:15:02.243Z,34.56
2019-04-22T12:16:03.282Z,35.05
2019-04-22T12:17:03.475Z,34.45
2019-04-22T12:18:03.613Z,34.82
2019-04-22T12:19:03.119Z,37.06
2019-04-22T12:20:05.060Z,36.29
2019-04-22T12:21:03.411Z,36.30
2019-04-22T12:22:02.895Z,37.19
2019-04-22T12:23:03.115Z,36.34
2019-04-22T12:24:01.492Z,32.65
2019-04-22T12:25:01.397Z,31.94
2019-04-22T12:26:05.842Z,32.60
2019-04-22T12:27:02.200Z,32.68
2019-04-22T12:28:01.243Z,34.90
2019-04-22T12:29:01.076Z,34.44
2019-04-22T12:30:00.981Z,34.05
2019-04-22T12:31:01.668Z,34.92
2019-04-22T12:32:00.806Z,35.96
2019-04-22T12:33:02.229Z,36.25
2019-04-22T12:34:01.472Z,36.33
2019-04-22T12:35:01.818Z,36.25
2019-04-22T12:36:00.515Z,37.23
2019-04-22T12:37:00.495Z,35.98
2019-04-22T12:38:05.132Z,35.40
2019-04-22T12:39:00.233Z,35.40
2019-04-22T12:40:00.369Z,35.48
2019-04-22T12:41:04.384Z,36.15
2019-04-22T12:42:00.381Z,37.41
2019-04-22T12:43:04.143Z,37.13
2019-04-22T12:44:00.972Z,36.27
2019-04-22T12:45:00.435Z,37.12
2019-04-22T12:46:00.400Z,37.68
2019-04-22T12:47:01.754Z,38.28
2019-04-22T12:48:00.103Z,37.31
2019-04-22T12:49:00.272Z,36.73
2019-04-22T12:50:11.847Z,36.73
2019-04-22T12:51:00.749Z,37.12
2019-04-22T12:51:59.115Z,37.29
2019-04-22T12:53:03.659Z,37.96
2019-04-22T12:53:59.413Z,38.91
2019-04-22T12:54:58.861Z,40.36
2019-04-22T12:55:59.501Z,40.51
2019-04-22T12:56:59.760Z,41.38
2019-04-22T12:58:00.790Z,41.08
2019-04-22T12:58:59.365Z,41.93
2019-04-22T12:59:59.559Z,42.60
2019-04-22T13:00:58.964Z,42.22
2019-04-22T13:01:58.586Z,42.22
2019-04-22T13:02:58.902Z,41.93
2019-04-22T13:04:05.348Z,42.32
2019-04-22T13:04:58.222Z,41.16
2019-04-22T13:05:59.289Z,42.12
2019-04-22T13:06:57.838Z,42.60
2019-04-22T13:07:57.872Z,42.00
2019-04-22T13:08:57.683Z,42.77
2019-04-22T13:09:59.143Z,42.60
2019-04-22T13:11:02.966Z,41.93
2019-04-22T13:11:57.410Z,40.85
2019-04-22T13:12:58.689Z,39.41
2019-04-22T13:13:58.825Z,40.37
2019-04-22T13:14:57.238Z,40.56
2019-04-22T13:15:57.177Z,41.64
2019-04-22T13:16:57.760Z,40.88
2019-04-22T13:18:05.790Z,40.39
2019-04-22T13:19:02.199Z,40.18
2019-04-22T13:19:58.149Z,40.01
2019-04-22T13:20:56.830Z,39.72
2019-04-22T13:21:56.691Z,39.12
2019-04-22T13:22:57.009Z,39.03
2019-04-22T13:23:57.120Z,40.28
2019-04-22T13:24:57.517Z,39.61
2019-04-22T13:25:56.769Z,39.51
2019-04-22T13:26:57.075Z,39.41
2019-04-22T13:27:57.456Z,39.12
2019-04-22T13:28:56.958Z,38.14
2019-04-22T13:29:57.084Z,39.20
2019-04-22T13:30:57.509Z,38.34
2019-04-22T13:31:55.653Z,37.57
2019-04-22T13:32:56.691Z,37.66
2019-04-22T13:33:58.054Z,37.47
2019-04-22T13:34:59.283Z,37.77
2019-04-22T13:35:55.298Z,37.59
2019-04-22T13:36:56.496Z,37.59
2019-04-22T13:37:55.230Z,38.28
2019-04-22T13:38:55.318Z,38.16
2019-04-22T13:39:54.952Z,38.64
2019-04-22T13:41:06.104Z,39.81
2019-04-22T13:42:00.463Z,40.68
2019-04-22T13:42:55.576Z,40.18
2019-04-22T13:43:56.058Z,39.12
2019-04-22T13:44:55.858Z,37.30
2019-04-22T13:45:54.406Z,37.01
2019-04-22T13:47:08.655Z,36.72
2019-04-22T13:48:11.138Z,36.05
2019-04-22T13:49:25.148Z,37.30
2019-04-22T13:50:25.558Z,38.26
2019-04-22T13:51:30.254Z,38.84
2019-04-22T13:52:34.298Z,39.12
2019-04-22T13:53:42.972Z,40.08
2019-04-22T13:55:43.640Z,40.28
2019-04-22T13:56:12.523Z,40.37
2019-04-22T13:57:09.114Z,40.56
2019-04-22T13:58:03.226Z,41.24
2019-04-22T13:59:01.980Z,42.18
2019-04-22T13:59:56.278Z,42.39
2019-04-22T14:00:54.287Z,42.39
2019-04-22T14:01:54.645Z,40.85
2019-04-22T14:02:52.892Z,39.51
2019-04-22T14:03:54.430Z,39.53
2019-04-22T14:04:52.840Z,39.62
2019-04-22T14:05:53.025Z,40.28
2019-04-22T14:06:52.677Z,41.24
2019-04-22T14:07:55.223Z,40.76
2019-04-22T14:08:53.411Z,40.30
2019-04-22T14:09:52.265Z,41.45
2019-04-22T14:10:52.543Z,42.39
2019-04-22T14:11:58.449Z,42.58
2019-04-22T14:12:52.910Z,43.35
2019-04-22T14:13:52.661Z,44.02
2019-04-22T14:14:52.578Z,44.62
2019-04-22T14:15:52.961Z,43.37
2019-04-22T14:16:53.121Z,42.41
2019-04-22T14:17:52.694Z,42.00
2019-04-22T14:18:51.960Z,42.60
2019-04-22T14:19:52.694Z,42.80
2019-04-22T14:20:51.261Z,42.87
2019-04-22T14:21:51.545Z,42.10
2019-04-22T14:22:52.571Z,42.18
2019-04-22T14:23:51.048Z,42.20